Effective Sunday, March 17, 2024, the National Weather Service National Data Buoy Center will discontinue its Dial-A-Buoy Interactive Voice Response system. For more information, see Service Change Notice 24-06 (PDF).

Station KEXA2 - Ketchikan Harbor, AK Image indicating link to RSS feed of recent meteorological observations for station KEXA2


Conditions at KEXA2 as of
(6:32 pm AKST on 02/23/2024)
0332 GMT on 02/24/2024:
     

Click on the graph icon in the table below to see a time series plot of the last five days of that observation.

5-day plot - Wind Direction Wind Direction (WDIR):ESE ( 110 deg true )
5-day plot - Wind Speed Wind Speed (WSPD): 1 kts
5-day plot - Wind Gust Wind Gust (GST): 3 kts
5-day plot - Air Temperature Air Temperature (ATMP): 40.1 °F
5-day plot - Wind Speed at 10 Meters Wind Speed at 10 meters (WSPD10M): 2 kts
5-day plot - Wind Speed at 20 Meters Wind Speed at 20 meters (WSPD20M): 2 kts
5-day plot -  Wind Speed, Wind Gust and Atmospheric Pressure Combined plot of Wind Speed, Gust, and Air Pressure
Previous observations
TIME
(AKST)
5-day plot - Wind Direction
WDIR
 
5-day plot - Wind Speed
WSPD
kts
5-day plot - Wind Gust
GST
kts
5-day plot - Wave Height
WVHT
ft
5-day plot - Dominant Wave Period
DPD
sec
5-day plot - Average Wave Period
APD
sec
5-day plot - Mean Wave Direction
MWD
 
5-day plot - Atmospheric Pressure
PRES
in
5-day plot - Pressure Tendency
PTDY
in
5-day plot - Air Temperature
ATMP
°F
5-day plot - Water Temperature
WTMP
°F
5-day plot - Dew Point
DEWP
°F
5-day plot - Salinity
SAL
psu
5-day plot - Visibility
VIS
nmi
5-day plot - Tide (above MLLW)
TIDE
ft
2024-02-23 06:22 pmSSE 2 4------ 40.3-----
2024-02-23 06:12 pm- 0 2------ 40.8-----
2024-02-23 06:02 pm- 0 2------ 41.4-----
2024-02-23 05:52 pm- 0 2------ 41.5-----
2024-02-23 05:42 pm- 0 2------ 41.5-----
2024-02-23 05:32 pm- 0 3------ 41.7-----
2024-02-23 05:22 pm- 0 2------ 41.5-----
2024-02-23 05:12 pm SE 2 4------ 41.5-----
2024-02-23 05:02 pm S 2 4------ 41.7-----
2024-02-23 04:52 pmSSE 3 7------ 41.7-----
2024-02-23 04:42 pmSSE 5 8------ 41.7-----
2024-02-23 04:32 pm S 5 10------ 41.9-----
2024-02-23 04:22 pmSSE 5 8------ 42.1-----
2024-02-23 04:12 pm S 4 6------ 42.3-----
2024-02-23 04:02 pm S 5 8------ 42.3-----
2024-02-23 03:52 pmSSE 6 9------ 42.4-----
2024-02-23 03:42 pm S 5 9------ 42.6-----
2024-02-23 03:32 pmSSW 4 8------ 43.0-----
2024-02-23 03:22 pm S 3 5------ 43.9-----
2024-02-23 03:12 pmWNW 2 4------ 45.5-----
2024-02-23 02:52 pm NW 3 6------ 44.8-----
2024-02-23 02:42 pm NW 4 7------ 44.2-----
2024-02-23 02:33 pm NW 5 9------ 44.8-----
2024-02-23 02:23 pm NW 4 9------ 45.0-----
2024-02-23 02:13 pm N 3 8------ 45.9-----
2024-02-23 02:04 pm NW 4 9------ 44.2-----
2024-02-23 01:53 pmNNW 5 10------ 44.1-----
2024-02-23 01:43 pm NW 5 9------ 43.9-----
2024-02-23 01:33 pm NW 6 10------ 43.9-----
2024-02-23 01:23 pm NW 6 11------ 43.3-----
2024-02-23 01:14 pm NW 6 11------ 43.0-----
2024-02-23 01:04 pm NW 7 14------ 43.2-----
2024-02-23 12:53 pmWNW 7 11------ 43.2-----
2024-02-23 12:42 pm NW 6 12------ 43.3-----
2024-02-23 12:32 pm NW 8 15------ 42.8-----
2024-02-23 12:22 pm NW 7 13------ 43.0-----
2024-02-23 12:12 pm NW 7 11------ 43.2-----
2024-02-23 12:02 pm NW 7 12------ 42.6-----
2024-02-23 11:52 am NW 7 13------ 43.0-----
2024-02-23 11:42 am NW 7 14------ 43.0-----
2024-02-23 11:33 am NW 8 14------ 42.6-----
2024-02-23 11:23 am NW 7 14------ 42.4-----
2024-02-23 11:13 am NW 7 14------ 42.4-----
2024-02-23 11:03 am NW 6 13------ 42.4-----
2024-02-23 10:53 am NW 7 12------ 42.3-----
2024-02-23 10:43 am NW 8 13------ 41.9-----
2024-02-23 10:33 amNNW 6 12------ 41.5-----
2024-02-23 10:23 amNNW 5 13------ 41.0-----
2024-02-23 10:13 am NW 7 12------ 41.0-----
2024-02-23 10:03 am NW 7 13------ 41.2-----
2024-02-23 09:53 am NW 7 14------ 41.4-----
2024-02-23 09:43 am NW 7 15------ 41.0-----
2024-02-23 09:33 amNNW 5 13------ 40.5-----
2024-02-23 09:24 am N 4 9------ 40.3-----
2024-02-23 09:14 amNNW 5 12------ 40.1-----
2024-02-23 09:04 amNNW 4 9------ 39.9-----
2024-02-23 08:53 am N 3 9------ 39.6-----
2024-02-23 08:43 am N 4 12------ 39.6-----
2024-02-23 08:34 amNNW 6 11------ 39.9-----
2024-02-23 08:24 am NW 7 13------ 40.3-----
2024-02-23 08:14 am NW 9 17------ 40.3-----
2024-02-23 08:05 am NW 10 20------ 41.0-----
2024-02-23 07:54 am NW 7 13------ 41.2-----
2024-02-23 07:45 amNNW 8 15------ 41.2-----
2024-02-23 07:35 am NW 7 15------ 41.4-----
2024-02-23 07:24 am NW 8 17------ 41.5-----
2024-02-23 07:14 amWNW 9 16------ 42.6-----
2024-02-23 07:04 amWNW 7 16------ 42.4-----
2024-02-23 06:53 amWNW 6 12------ 42.3-----
2024-02-23 06:42 amWNW 7 12------ 43.0-----
2024-02-23 06:32 amWNW 8 13------ 43.2-----
2024-02-23 06:22 amWNW 6 10------ 43.3-----
2024-02-23 06:12 amWNW 8 13------ 43.5-----
2024-02-23 06:02 amWNW 8 11------ 43.5-----
2024-02-23 05:52 amWNW 9 16------ 43.5-----
2024-02-23 05:42 amWNW 7 13------ 43.5-----
2024-02-23 05:32 am NW 7 15------ 43.5-----
2024-02-23 05:22 am NW 5 14------ 42.8-----
2024-02-23 05:12 amWNW 7 14------ 42.8-----
2024-02-23 05:02 amWNW 5 9------ 43.2-----
2024-02-23 04:52 am W 5 14------ 42.8-----
2024-02-23 04:42 amSSW 3 8------ 43.0-----
2024-02-23 04:32 amSSE 9 17------ 43.2-----
2024-02-23 04:22 amSSE 11 18------ 42.8-----
2024-02-23 04:12 amSSE 12 18------ 42.8-----
2024-02-23 04:02 amSSE 13 21------ 42.8-----
2024-02-23 03:52 amSSE 14 23------ 42.4-----
2024-02-23 03:42 amSSE 13 21------ 42.1-----
2024-02-23 03:32 am SE 13 22------ 41.7-----
2024-02-23 03:22 am SE 14 25------ 41.4-----
2024-02-23 03:12 am SE 15 22------ 41.2-----
2024-02-23 03:02 am SE 15 22------ 41.2-----
2024-02-23 02:52 am SE 13 24------ 41.2-----
2024-02-23 02:42 am SE 11 19------ 40.6-----
2024-02-23 02:32 am SE 12 22------ 40.5-----
2024-02-23 02:23 am SE 12 20------ 40.5-----
2024-02-23 02:13 am SE 14 24------ 40.6-----
2024-02-23 02:03 amSSE 16 23------ 40.6-----
2024-02-23 01:53 amSSE 15 24------ 40.5-----
2024-02-23 01:43 amSSE 15 27------ 40.5-----
2024-02-23 01:33 amSSE 15 27------ 40.3-----
2024-02-23 01:23 amSSE 15 24------ 40.5-----
2024-02-23 01:13 amSSE 16 29------ 40.5-----
2024-02-23 01:03 amSSE 13 23------ 40.5-----
2024-02-23 12:53 amSSE 15 23------ 40.3-----
2024-02-23 12:42 amSSE 14 24------ 40.5-----
2024-02-23 12:32 amSSE 16 24------ 40.5-----
2024-02-23 12:22 amSSE 14 23------ 40.6-----
2024-02-23 12:12 amSSE 13 25------ 40.6-----
2024-02-23 12:02 amSSE 14 23------ 40.6-----
2024-02-22 11:52 pmSSE 13 22------ 40.6-----
2024-02-22 11:42 pmSSE 14 24------ 40.6-----
2024-02-22 11:32 pmSSE 13 22------ 40.5-----
2024-02-22 11:22 pmSSE 13 22------ 40.6-----
2024-02-22 11:12 pmSSE 14 21------ 40.5-----
2024-02-22 11:03 pmSSE 14 22------ 40.6-----
2024-02-22 10:52 pmSSE 15 24------ 40.8-----
2024-02-22 10:42 pmSSE 14 23------ 40.8-----
2024-02-22 10:32 pmSSE 15 23------ 41.0-----
2024-02-22 10:23 pmSSE 11 19------ 41.0-----
2024-02-22 10:13 pmSSE 13 22------ 41.2-----
2024-02-22 10:03 pmSSE 13 25------ 41.4-----
2024-02-22 09:53 pmSSE 14 22------ 41.5-----
2024-02-22 09:43 pmSSE 13 19------ 41.5-----
2024-02-22 09:33 pm SE 14 25------ 41.5-----
2024-02-22 09:23 pm SE 14 27------ 41.4-----
2024-02-22 09:14 pm SE 15 24------ 41.2-----
2024-02-22 09:04 pm SE 13 25------ 41.2-----
2024-02-22 08:53 pm SE 14 21------ 41.0-----
2024-02-22 08:44 pm SE 15 23------ 41.0-----
2024-02-22 08:34 pm SE 14 26------ 40.8-----
2024-02-22 08:24 pm SE 14 26------ 40.5-----
2024-02-22 08:14 pm SE 13 19------ 40.1-----
2024-02-22 08:05 pm SE 11 26------ 39.9-----
2024-02-22 07:54 pm SE 13 23------ 39.9-----
2024-02-22 07:44 pm SE 12 21------ 39.7-----
2024-02-22 07:35 pm SE 12 19------ 39.7-----
2024-02-22 07:24 pm SE 11 18------ 39.9-----
2024-02-22 07:14 pm SE 14 21------ 39.9-----
2024-02-22 07:04 pm SE 14 20------ 39.9-----
2024-02-22 06:53 pm SE 12 19------ 40.1-----
2024-02-22 06:42 pmSSE 10 14------ 40.3-----
2024-02-22 06:32 pmSSE 12 20------ 40.3-----
2024-02-22 06:22 pmSSE 10 16------ 40.6-----
2024-02-22 06:12 pm SE 11 17------ 40.8-----
2024-02-22 06:02 pm SE 11 18------ 41.2-----
2024-02-22 05:52 pm SE 10 17------ 41.5-----